Yangjiang, China
Current Conditions -  °F | °C
As of 8:00 PM on Tuesday 21 Oct 2014 (Local Time) from VMMC Reporting Station
Few Clouds Few Clouds  
Wind Chill: 81°   Ceiling: Unl
Heat Index: 85°   Visibility: 6mi
Dew Point: 72°   Wind: 2mph
Humidity: 74%   Direction: NA
Pressure: 29.94"   Gusts: NA
Location:  21.85°N, 111.97°E
Report Text: VMMC 211200Z VRB02KT 9999 FEW040 27/22 Q1014 NOSIG
Loading
Personal Weather Stations






























Interactive Weather Map
Tropical Storm Tracking
New forecast layout! Learn more

10-Day Weather Forecast

Advertisements
Track Severe Weather on mobile